createdAt,value
2022-10-11T00:00:15.482Z,2.50
2022-10-11T00:02:42.891Z,2.45
2022-10-11T00:05:10.804Z,2.25
2022-10-11T00:07:38.806Z,2.17
2022-10-11T00:10:07.008Z,2.35
2022-10-11T00:12:34.616Z,2.20
2022-10-11T00:15:02.045Z,2.53
2022-10-11T00:17:29.391Z,2.38
2022-10-11T00:19:56.847Z,3.47
2022-10-11T00:22:24.238Z,3.42
2022-10-11T00:24:52.945Z,5.68
2022-10-11T00:27:20.297Z,1.95
2022-10-11T00:29:47.656Z,1.55
2022-10-11T00:32:15.002Z,2.45
2022-10-11T00:34:42.376Z,3.20
2022-10-11T00:37:09.698Z,3.63
2022-10-11T00:39:37.099Z,3.35
2022-10-11T00:42:05.354Z,2.42
2022-10-11T00:44:33.980Z,2.88
2022-10-11T00:47:09.194Z,2.00
2022-10-11T00:49:44.705Z,2.63
2022-10-11T00:52:24.067Z,3.10
2022-10-11T00:54:51.779Z,2.53
2022-10-11T00:57:22.320Z,3.03
2022-10-11T00:59:51.300Z,2.70
2022-10-11T01:02:19.395Z,2.85
2022-10-11T01:04:46.854Z,2.83
2022-10-11T01:07:14.198Z,3.70
2022-10-11T01:09:41.626Z,2.50
2022-10-11T01:12:17.996Z,3.55
2022-10-11T01:14:51.432Z,2.92
2022-10-11T01:17:18.863Z,2.13
2022-10-11T01:19:52.370Z,1.98
2022-10-11T01:22:28.990Z,2.72
2022-10-11T01:25:26.945Z,2.97
2022-10-11T01:27:57.128Z,2.40
2022-10-11T01:30:38.253Z,2.15
2022-10-11T01:33:05.553Z,2.35
2022-10-11T01:35:55.639Z,2.88
2022-10-11T01:38:22.999Z,2.63
2022-10-11T01:41:00.317Z,4.40
2022-10-11T01:43:28.413Z,2.22
2022-10-11T01:45:57.033Z,2.95
2022-10-11T01:48:24.639Z,1.80
2022-10-11T01:51:02.103Z,2.13
2022-10-11T01:53:53.663Z,2.30
2022-10-11T01:56:21.071Z,2.92
2022-10-11T01:59:03.419Z,3.78
2022-10-11T02:01:58.215Z,2.63
2022-10-11T02:05:02.013Z,2.42
2022-10-11T02:07:41.511Z,2.83
2022-10-11T02:10:25.987Z,3.43
2022-10-11T02:13:05.873Z,2.97
2022-10-11T02:15:36.579Z,2.22
2022-10-11T02:18:07.358Z,3.35
2022-10-11T02:20:35.188Z,2.22
2022-10-11T02:23:09.631Z,2.92
2022-10-11T02:25:37.967Z,2.58
2022-10-11T02:28:08.003Z,2.35
2022-10-11T02:30:35.913Z,2.30
2022-10-11T02:33:05.387Z,2.58
2022-10-11T02:35:37.233Z,2.07
2022-10-11T02:38:21.538Z,2.50
2022-10-11T02:40:55.122Z,2.75
2022-10-11T02:43:25.361Z,2.13
2022-10-11T02:45:57.836Z,2.00
2022-10-11T02:48:25.604Z,1.98
2022-10-11T02:50:54.226Z,2.17
2022-10-11T02:53:21.890Z,2.85
2022-10-11T02:55:50.589Z,2.63
2022-10-11T02:58:17.960Z,2.20
2022-10-11T03:00:45.633Z,2.13
2022-10-11T03:03:13.005Z,2.65
2022-10-11T03:05:43.994Z,2.85
2022-10-11T03:08:12.740Z,2.65
2022-10-11T03:10:40.611Z,2.63
2022-10-11T03:13:07.989Z,2.58
2022-10-11T03:15:35.554Z,2.60
2022-10-11T03:18:03.040Z,4.15
2022-10-11T03:20:30.530Z,2.47
2022-10-11T03:22:57.879Z,2.67
2022-10-11T03:25:25.236Z,2.28
2022-10-11T03:27:52.610Z,2.30
2022-10-11T03:30:20.243Z,2.47
2022-10-11T03:32:47.637Z,3.13
2022-10-11T03:35:15.006Z,2.53
2022-10-11T03:37:42.557Z,3.08
2022-10-11T03:40:10.750Z,3.03
2022-10-11T03:42:38.271Z,2.15
2022-10-11T03:45:08.225Z,2.67
2022-10-11T03:47:36.088Z,3.80
2022-10-11T03:50:03.771Z,3.67
2022-10-11T03:52:31.325Z,2.72
2022-10-11T03:54:58.664Z,2.70
2022-10-11T03:57:26.109Z,3.58
2022-10-11T03:59:53.419Z,2.67
2022-10-11T04:02:21.486Z,3.00
2022-10-11T04:04:48.994Z,3.45
2022-10-11T04:07:16.576Z,2.67
2022-10-11T04:09:43.995Z,2.35
2022-10-11T04:12:11.455Z,2.42
2022-10-11T04:14:38.794Z,2.47
2022-10-11T04:17:06.134Z,2.20
2022-10-11T04:19:33.562Z,2.63
2022-10-11T04:22:00.905Z,2.47
2022-10-11T04:24:28.246Z,2.33
2022-10-11T04:26:55.675Z,2.88
2022-10-11T04:29:23.169Z,2.55
2022-10-11T04:31:50.603Z,3.08
2022-10-11T04:34:18.025Z,3.33
2022-10-11T04:36:49.767Z,2.97
2022-10-11T04:39:17.626Z,2.72
2022-10-11T04:41:44.983Z,2.13
2022-10-11T04:44:12.345Z,3.25
2022-10-11T04:46:39.698Z,3.08
2022-10-11T04:49:07.005Z,2.50
2022-10-11T04:51:34.347Z,2.88
2022-10-11T04:54:01.714Z,2.20
2022-10-11T04:56:30.652Z,2.75
2022-10-11T04:58:57.970Z,2.70
2022-10-11T05:01:25.357Z,2.30
2022-10-11T05:03:52.700Z,2.17
2022-10-11T05:06:20.495Z,1.90
2022-10-11T05:08:47.837Z,2.20
2022-10-11T05:11:16.321Z,2.25
2022-10-11T05:13:44.229Z,2.75
2022-10-11T05:16:12.054Z,2.53
2022-10-11T05:18:40.231Z,2.63
2022-10-11T05:21:14.456Z,2.22
2022-10-11T05:23:41.735Z,4.28
2022-10-11T05:26:09.385Z,2.67
2022-10-11T05:28:37.016Z,2.20
2022-10-11T05:31:05.060Z,2.75
2022-10-11T05:33:32.505Z,2.70
2022-10-11T05:36:00.668Z,2.65
2022-10-11T05:38:28.210Z,2.42
2022-10-11T05:40:55.625Z,2.60
2022-10-11T05:43:22.976Z,2.78
2022-10-11T05:45:50.780Z,3.33
2022-10-11T05:48:18.309Z,3.50
2022-10-11T05:50:45.701Z,2.67
2022-10-11T05:53:13.375Z,4.53
2022-10-11T05:55:42.168Z,3.17
2022-10-11T05:58:12.708Z,2.80
2022-10-11T06:00:40.111Z,2.63
2022-10-11T06:03:08.840Z,2.90
2022-10-11T06:05:36.666Z,2.72
2022-10-11T06:08:06.093Z,3.13
2022-10-11T06:10:33.785Z,3.20
2022-10-11T06:13:01.136Z,3.15
2022-10-11T06:15:28.482Z,3.58
2022-10-11T06:17:56.077Z,3.75
2022-10-11T06:20:23.429Z,3.55
2022-10-11T06:22:50.790Z,3.38
2022-10-11T06:25:18.158Z,3.45
2022-10-11T06:27:45.965Z,3.10
2022-10-11T06:30:14.185Z,2.70
2022-10-11T06:32:41.531Z,2.85
2022-10-11T06:35:09.063Z,5.63
2022-10-11T06:37:36.467Z,2.97
2022-10-11T06:40:03.993Z,3.45
2022-10-11T06:42:31.332Z,3.00
2022-10-11T06:44:58.629Z,2.97
2022-10-11T06:47:25.965Z,2.95
2022-10-11T06:49:53.719Z,2.63
2022-10-11T06:52:21.189Z,3.47
2022-10-11T06:54:49.030Z,3.60
2022-10-11T06:57:16.421Z,3.30
2022-10-11T06:59:43.735Z,3.55
2022-10-11T07:02:11.093Z,3.67
2022-10-11T07:04:39.351Z,4.10
2022-10-11T07:07:06.703Z,3.45
2022-10-11T07:09:34.623Z,4.25
2022-10-11T07:12:02.004Z,4.38
2022-10-11T07:14:29.353Z,4.03
2022-10-11T07:16:57.586Z,4.55
2022-10-11T07:19:24.955Z,4.53
2022-10-11T07:21:52.376Z,4.78
2022-10-11T07:24:19.695Z,3.90
2022-10-11T07:26:47.257Z,4.40
2022-10-11T07:29:14.732Z,5.25
2022-10-11T07:31:42.689Z,4.70
2022-10-11T07:34:10.089Z,3.95
2022-10-11T07:36:37.737Z,4.60
2022-10-11T07:39:06.944Z,5.15
2022-10-11T07:41:34.429Z,4.82
2022-10-11T07:44:01.783Z,5.53
2022-10-11T07:46:29.194Z,5.00
2022-10-11T07:48:56.552Z,5.18
2022-10-11T07:51:25.001Z,4.88
2022-10-11T07:53:53.795Z,4.72
2022-10-11T07:56:22.850Z,4.63
2022-10-11T07:58:51.582Z,4.90
2022-10-11T08:01:19.278Z,5.15
2022-10-11T08:03:47.142Z,6.40
2022-10-11T08:06:16.194Z,4.75
2022-10-11T08:08:43.622Z,5.07
2022-10-11T08:11:10.955Z,4.82
2022-10-11T08:13:38.459Z,4.93
2022-10-11T08:16:12.701Z,4.75
2022-10-11T08:18:40.118Z,4.22
2022-10-11T08:21:12.013Z,4.32
2022-10-11T08:23:39.937Z,4.57
2022-10-11T08:26:07.793Z,4.10
2022-10-11T08:28:35.453Z,3.45
2022-10-11T08:31:02.984Z,4.53
2022-10-11T08:33:31.097Z,3.92
2022-10-11T08:35:58.902Z,4.60
2022-10-11T08:38:26.250Z,3.55
2022-10-11T08:40:58.546Z,4.25
2022-10-11T08:43:44.060Z,3.58
2022-10-11T08:46:12.047Z,3.83
2022-10-11T08:48:42.718Z,3.60
2022-10-11T08:51:19.611Z,4.47
2022-10-11T08:53:54.668Z,3.88
2022-10-11T08:56:23.444Z,3.58
2022-10-11T08:58:54.149Z,3.88
2022-10-11T09:01:24.131Z,3.80
2022-10-11T09:03:51.764Z,3.88
2022-10-11T09:06:28.434Z,3.88
2022-10-11T09:09:04.317Z,4.00
2022-10-11T09:11:49.801Z,3.35
2022-10-11T09:14:29.361Z,3.78
2022-10-11T09:17:15.328Z,4.45
2022-10-11T09:20:00.846Z,3.58
2022-10-11T09:22:30.539Z,3.15
2022-10-11T09:25:24.662Z,4.22
2022-10-11T09:28:06.964Z,3.97
2022-10-11T09:30:34.821Z,3.88
2022-10-11T09:33:18.681Z,4.03
2022-10-11T09:35:51.573Z,3.83
2022-10-11T09:38:50.916Z,3.33
2022-10-11T09:41:56.572Z,3.72
2022-10-11T09:44:25.262Z,3.75
2022-10-11T09:46:53.626Z,4.60
2022-10-11T09:49:23.933Z,3.85
2022-10-11T09:54:37.431Z,3.78
2022-10-11T09:57:04.856Z,4.03
2022-10-11T09:59:33.538Z,2.83
2022-10-11T10:02:18.639Z,3.75
2022-10-11T10:04:58.236Z,3.63
2022-10-11T10:07:25.864Z,3.03
2022-10-11T10:09:53.244Z,2.35
2022-10-11T10:12:22.504Z,3.53
2022-10-11T10:15:10.946Z,4.32
2022-10-11T10:17:38.434Z,3.15
2022-10-11T10:20:07.032Z,3.13
2022-10-11T10:22:35.810Z,3.75
2022-10-11T10:25:08.078Z,3.60
2022-10-11T10:27:35.654Z,3.47
2022-10-11T10:30:08.591Z,4.40
2022-10-11T10:33:06.794Z,2.97
2022-10-11T10:35:45.786Z,2.85
2022-10-11T10:38:22.824Z,2.78
2022-10-11T10:40:58.882Z,3.22
2022-10-11T10:43:29.424Z,3.80
2022-10-11T10:46:12.233Z,3.33
2022-10-11T10:49:41.140Z,3.35
2022-10-11T10:52:06.025Z,4.57
2022-10-11T10:54:57.474Z,2.83
2022-10-11T10:57:45.539Z,2.53
2022-10-11T11:00:23.721Z,2.45
2022-10-11T11:02:58.669Z,2.70
2022-10-11T11:05:51.092Z,3.03
2022-10-11T11:08:18.483Z,2.70
2022-10-11T11:11:19.295Z,2.72
2022-10-11T11:13:49.698Z,2.78
2022-10-11T11:16:17.141Z,2.70
2022-10-11T11:18:51.609Z,2.85
2022-10-11T11:21:54.532Z,3.17
2022-10-11T11:24:46.720Z,3.15
2022-10-11T11:27:14.056Z,2.50
2022-10-11T11:30:19.149Z,2.50
2022-10-11T11:32:57.438Z,3.10
2022-10-11T11:35:38.669Z,3.08
2022-10-11T11:38:27.118Z,2.42
2022-10-11T11:41:02.689Z,2.78
2022-10-11T11:43:32.720Z,2.20
2022-10-11T11:46:24.695Z,2.00
2022-10-11T11:48:53.262Z,3.25
2022-10-11T11:51:47.022Z,2.72
2022-10-11T11:54:22.820Z,2.97
2022-10-11T11:57:02.459Z,2.28
2022-10-11T11:59:55.871Z,3.50
2022-10-11T12:02:41.574Z,3.60
2022-10-11T12:05:10.539Z,2.15
2022-10-11T12:07:56.699Z,2.03
2022-10-11T12:10:51.596Z,3.00
2022-10-11T12:13:37.321Z,2.47
2022-10-11T12:16:04.689Z,2.63
2022-10-11T12:18:32.426Z,2.38
2022-10-11T12:21:34.666Z,2.95
2022-10-11T12:24:22.946Z,2.65
2022-10-11T12:26:58.696Z,1.88
2022-10-11T12:29:43.611Z,2.30
2022-10-11T12:32:11.577Z,3.13
2022-10-11T12:34:43.919Z,2.08
2022-10-11T12:37:14.044Z,2.63
2022-10-11T12:39:45.285Z,2.25
2022-10-11T12:42:34.706Z,3.35
2022-10-11T12:45:13.810Z,1.98
2022-10-11T12:47:42.980Z,1.80
2022-10-11T12:50:28.558Z,2.05
2022-10-11T12:53:03.942Z,2.30
2022-10-11T12:55:31.313Z,2.38
2022-10-11T12:58:40.581Z,2.28
2022-10-11T13:01:10.315Z,1.98
2022-10-11T13:03:40.704Z,1.67
2022-10-11T13:06:16.454Z,2.10
2022-10-11T13:08:49.338Z,1.90
2022-10-11T13:11:27.904Z,3.00
2022-10-11T13:14:00.323Z,2.15
2022-10-11T13:16:41.752Z,1.33
2022-10-11T13:19:13.394Z,2.08
2022-10-11T13:21:41.495Z,3.17
2022-10-11T13:24:16.049Z,2.28
2022-10-11T13:26:48.720Z,1.80
2022-10-11T13:29:19.188Z,1.83
2022-10-11T13:31:48.105Z,2.40
2022-10-11T13:34:18.608Z,2.08
2022-10-11T13:36:48.415Z,1.80
2022-10-11T13:39:31.516Z,1.80
2022-10-11T13:42:00.237Z,1.83
2022-10-11T13:44:27.796Z,1.75
2022-10-11T13:46:55.273Z,1.50
2022-10-11T13:49:27.178Z,1.85
2022-10-11T13:52:02.168Z,1.50
2022-10-11T13:54:54.438Z,1.92
2022-10-11T13:57:38.314Z,1.92
2022-10-11T14:00:15.725Z,1.77
2022-10-11T14:02:50.877Z,1.70
2022-10-11T14:05:33.753Z,1.98
2022-10-11T14:08:03.098Z,1.90
2022-10-11T14:10:30.803Z,1.52
2022-10-11T14:13:00.912Z,2.63
2022-10-11T14:15:36.407Z,2.83
2022-10-11T14:18:41.634Z,1.60
2022-10-11T14:21:20.706Z,1.75
2022-10-11T14:23:48.462Z,2.47
2022-10-11T14:26:18.721Z,2.13
2022-10-11T14:28:46.917Z,2.20
2022-10-11T14:31:14.263Z,1.55
2022-10-11T14:33:41.597Z,2.08
2022-10-11T14:36:09.209Z,2.03
2022-10-11T14:38:36.646Z,2.33
2022-10-11T14:41:04.128Z,1.88
2022-10-11T14:43:31.518Z,1.77
2022-10-11T14:45:58.827Z,2.05
2022-10-11T14:48:50.089Z,1.80
2022-10-11T14:51:13.901Z,1.55
2022-10-11T14:53:46.307Z,2.33
2022-10-11T14:56:17.806Z,2.28
2022-10-11T14:58:49.042Z,1.77
2022-10-11T15:01:17.296Z,2.13
2022-10-11T15:03:44.995Z,2.00
2022-10-11T15:06:19.530Z,2.35
2022-10-11T15:08:47.064Z,1.63
2022-10-11T15:11:16.790Z,2.17
2022-10-11T15:13:44.180Z,2.15
2022-10-11T15:16:13.529Z,1.95
2022-10-11T15:18:40.990Z,2.00
2022-10-11T15:21:08.670Z,2.10
2022-10-11T15:23:36.144Z,1.45
2022-10-11T15:26:03.755Z,2.47
2022-10-11T15:28:32.491Z,1.92
2022-10-11T15:31:00.531Z,2.17
2022-10-11T15:33:27.963Z,1.23
2022-10-11T15:35:55.278Z,1.70
2022-10-11T15:38:24.724Z,2.58
2022-10-11T15:40:52.626Z,1.93
2022-10-11T15:43:24.439Z,2.42
2022-10-11T15:45:52.505Z,2.70
2022-10-11T15:48:21.354Z,2.22
2022-10-11T15:50:48.962Z,1.80
2022-10-11T15:53:16.291Z,1.88
2022-10-11T15:55:45.550Z,1.92
2022-10-11T15:58:17.312Z,2.75
2022-10-11T16:00:45.831Z,2.05
2022-10-11T16:03:16.487Z,1.83
2022-10-11T16:05:44.466Z,2.03
2022-10-11T16:08:12.088Z,1.83
2022-10-11T16:10:39.926Z,2.95
2022-10-11T16:13:07.636Z,2.75
2022-10-11T16:15:38.628Z,1.92
2022-10-11T16:18:07.593Z,3.33
2022-10-11T16:20:34.981Z,2.90
2022-10-11T16:23:02.320Z,2.50
2022-10-11T16:25:29.623Z,3.28
2022-10-11T16:27:57.063Z,3.90
2022-10-11T16:30:24.626Z,2.90
2022-10-11T16:32:52.003Z,7.78
2022-10-11T16:35:19.464Z,7.85
2022-10-11T16:37:46.886Z,5.25
2022-10-11T16:40:17.473Z,4.25
2022-10-11T16:42:46.014Z,3.55
2022-10-11T16:45:14.224Z,2.88
2022-10-11T16:47:42.046Z,2.35
2022-10-11T16:50:10.157Z,2.42
2022-10-11T16:52:37.542Z,2.60
2022-10-11T16:55:05.131Z,3.25
2022-10-11T16:57:32.595Z,3.58
2022-10-11T17:00:00.192Z,2.30
2022-10-11T17:02:32.348Z,2.90
2022-10-11T17:05:00.380Z,2.92
2022-10-11T17:07:27.925Z,3.20
2022-10-11T17:09:55.498Z,3.00
2022-10-11T17:12:24.293Z,3.05
2022-10-11T17:14:51.863Z,4.22
2022-10-11T17:17:19.842Z,4.05
2022-10-11T17:19:47.994Z,4.75
2022-10-11T17:22:17.541Z,3.78
2022-10-11T17:24:45.261Z,5.25
2022-10-11T17:27:12.877Z,4.40
2022-10-11T17:29:40.296Z,4.25
2022-10-11T17:32:07.678Z,4.03
2022-10-11T17:34:35.131Z,3.63
2022-10-11T17:37:02.482Z,3.55
2022-10-11T17:39:29.857Z,3.08
2022-10-11T17:41:57.301Z,3.55
2022-10-11T17:44:24.886Z,3.25
2022-10-11T17:46:52.498Z,2.60
2022-10-11T17:49:20.117Z,3.10
2022-10-11T17:51:48.051Z,2.88
2022-10-11T17:54:16.308Z,2.33
2022-10-11T17:56:43.918Z,2.72
2022-10-11T17:59:16.919Z,2.80
2022-10-11T18:01:44.584Z,2.33
2022-10-11T18:04:16.636Z,2.85
2022-10-11T18:06:45.402Z,2.30
2022-10-11T18:09:13.677Z,3.17
2022-10-11T18:11:41.204Z,2.38
2022-10-11T18:14:08.890Z,2.10
2022-10-11T18:16:37.104Z,2.20
2022-10-11T18:19:06.499Z,2.97
2022-10-11T18:21:35.022Z,3.40
2022-10-11T18:24:03.810Z,2.45
2022-10-11T18:26:31.326Z,3.30
2022-10-11T18:28:59.791Z,4.55
2022-10-11T18:31:28.723Z,4.53
2022-10-11T18:33:56.436Z,2.95
2022-10-11T18:36:25.391Z,2.95
2022-10-11T18:38:58.593Z,2.85
2022-10-11T18:41:33.450Z,3.90
2022-10-11T18:44:02.050Z,2.65
2022-10-11T18:46:32.272Z,2.58
2022-10-11T18:49:02.066Z,3.25
2022-10-11T18:51:31.234Z,2.55
2022-10-11T18:53:59.471Z,3.15
2022-10-11T18:56:28.064Z,3.92
2022-10-11T18:58:56.415Z,3.60
2022-10-11T19:01:25.706Z,3.05
2022-10-11T19:03:54.778Z,3.37
2022-10-11T19:06:23.333Z,3.55
2022-10-11T19:08:56.424Z,3.45
2022-10-11T19:11:25.480Z,3.08
2022-10-11T19:13:56.890Z,3.28
2022-10-11T19:16:25.257Z,3.97
2022-10-11T19:18:53.416Z,3.28
2022-10-11T19:21:20.909Z,7.03
2022-10-11T19:23:49.471Z,9.80
2022-10-11T19:26:21.745Z,8.43
2022-10-11T19:28:58.390Z,6.57
2022-10-11T19:31:26.203Z,5.82
2022-10-11T19:33:53.689Z,5.00
2022-10-11T19:36:21.121Z,3.72
2022-10-11T19:38:49.548Z,3.60
2022-10-11T19:41:18.329Z,4.13
2022-10-11T19:43:46.269Z,3.13
2022-10-11T19:46:32.387Z,3.03
2022-10-11T19:49:06.027Z,3.65
2022-10-11T19:51:34.929Z,3.35
2022-10-11T19:54:03.555Z,3.60
2022-10-11T19:56:31.981Z,3.45
2022-10-11T19:58:59.338Z,5.30
2022-10-11T20:01:29.188Z,3.80
2022-10-11T20:03:57.755Z,3.53
2022-10-11T20:06:25.759Z,3.80
2022-10-11T20:09:16.561Z,3.05
2022-10-11T20:11:40.908Z,3.28
2022-10-11T20:14:08.914Z,2.95
2022-10-11T20:16:36.615Z,3.40
2022-10-11T20:19:04.991Z,3.67
2022-10-11T20:21:33.159Z,3.00
2022-10-11T20:24:02.535Z,2.78
2022-10-11T20:26:30.414Z,3.30
2022-10-11T20:28:58.965Z,2.97
2022-10-11T20:31:26.392Z,2.78
2022-10-11T20:33:58.701Z,3.42
2022-10-11T20:36:29.515Z,3.28
2022-10-11T20:38:57.728Z,3.17
2022-10-11T20:41:31.240Z,3.72
2022-10-11T20:44:00.672Z,3.45
2022-10-11T20:46:30.132Z,3.83
2022-10-11T20:49:01.918Z,3.60
2022-10-11T20:51:35.104Z,3.25
2022-10-11T20:54:04.150Z,3.45
2022-10-11T20:56:31.753Z,3.38
2022-10-11T20:58:59.206Z,3.45
2022-10-11T21:01:28.497Z,3.33
2022-10-11T21:03:57.688Z,3.53
2022-10-11T21:06:25.417Z,3.00
2022-10-11T21:09:01.707Z,3.42
2022-10-11T21:11:30.306Z,2.42
2022-10-11T21:13:58.857Z,3.25
2022-10-11T21:16:27.005Z,3.25
2022-10-11T21:18:56.200Z,3.70
2022-10-11T21:21:24.092Z,3.45
2022-10-11T21:24:01.448Z,3.88
2022-10-11T21:26:29.268Z,3.42
2022-10-11T21:28:56.931Z,2.60
2022-10-11T21:31:24.383Z,3.65
2022-10-11T21:33:51.855Z,3.55
2022-10-11T21:36:20.692Z,4.65
2022-10-11T21:38:48.676Z,3.25
2022-10-11T21:41:21.004Z,3.60
2022-10-11T21:43:48.856Z,3.25
2022-10-11T21:46:41.597Z,3.55
2022-10-11T21:49:12.569Z,3.63
2022-10-11T21:51:39.995Z,3.88
2022-10-11T21:54:07.570Z,3.78
2022-10-11T21:56:34.919Z,3.63
2022-10-11T21:59:03.580Z,3.20
2022-10-11T22:01:34.024Z,3.65
2022-10-11T22:04:01.505Z,3.92
2022-10-11T22:06:28.865Z,3.20
2022-10-11T22:08:56.285Z,3.35
2022-10-11T22:11:23.723Z,3.63
2022-10-11T22:13:51.047Z,3.35
2022-10-11T22:16:18.392Z,3.88
2022-10-11T22:18:45.803Z,3.55
2022-10-11T22:21:21.852Z,3.45
2022-10-11T22:23:51.985Z,3.92
2022-10-11T22:26:20.456Z,3.80
2022-10-11T22:28:48.012Z,2.90
2022-10-11T22:31:16.555Z,3.67
2022-10-11T22:36:17.233Z,3.70
2022-10-11T22:38:44.759Z,3.97
2022-10-11T22:41:12.340Z,2.97
2022-10-11T22:43:40.221Z,3.40
2022-10-11T22:46:07.642Z,2.78
2022-10-11T22:48:35.068Z,3.17
2022-10-11T22:51:02.549Z,3.05
2022-10-11T22:53:30.661Z,2.97
2022-10-11T22:55:58.123Z,3.25
2022-10-11T22:58:25.617Z,2.85
2022-10-11T23:00:52.969Z,2.47
2022-10-11T23:03:20.814Z,2.78
2022-10-11T23:05:55.780Z,2.60
2022-10-11T23:08:23.201Z,3.50
2022-10-11T23:10:50.499Z,3.22
2022-10-11T23:13:17.839Z,3.75
2022-10-11T23:15:45.208Z,3.17
2022-10-11T23:18:12.602Z,3.33
2022-10-11T23:20:40.013Z,2.88
2022-10-11T23:23:07.685Z,2.92
2022-10-11T23:25:35.023Z,2.95
2022-10-11T23:28:02.802Z,2.65
2022-10-11T23:30:30.461Z,3.03
2022-10-11T23:32:58.048Z,2.90
2022-10-11T23:35:25.542Z,2.60
2022-10-11T23:37:55.674Z,3.38
2022-10-11T23:40:23.085Z,3.08
2022-10-11T23:42:50.445Z,3.85
2022-10-11T23:45:17.832Z,3.45
2022-10-11T23:47:45.191Z,3.00
2022-10-11T23:50:12.567Z,3.78
2022-10-11T23:52:39.905Z,2.92
2022-10-11T23:55:07.345Z,3.17
2022-10-11T23:57:34.885Z,3.05
